sensor_id;sensor_type;location;lat;lon;timestamp;temperature;humidity
25250;DHT22;13201;51.148;13.738;2022-10-18T00:02:03;16.00;99.90
25250;DHT22;13201;51.148;13.738;2022-10-18T00:04:29;15.90;99.90
25250;DHT22;13201;51.148;13.738;2022-10-18T00:06:55;15.90;99.90
25250;DHT22;13201;51.148;13.738;2022-10-18T00:09:20;15.90;99.90
25250;DHT22;13201;51.148;13.738;2022-10-18T00:11:46;16.00;99.90
25250;DHT22;13201;51.148;13.738;2022-10-18T00:14:11;15.90;99.90
25250;DHT22;13201;51.148;13.738;2022-10-18T00:16:37;15.60;99.90
25250;DHT22;13201;51.148;13.738;2022-10-18T00:19:03;15.70;99.90
25250;DHT22;13201;51.148;13.738;2022-10-18T00:21:29;15.70;99.90
25250;DHT22;13201;51.148;13.738;2022-10-18T00:23:54;15.90;99.90
25250;DHT22;13201;51.148;13.738;2022-10-18T00:26:23;15.90;99.90
25250;DHT22;13201;51.148;13.738;2022-10-18T00:28:54;15.90;99.90
25250;DHT22;13201;51.148;13.738;2022-10-18T00:31:29;15.70;99.90
25250;DHT22;13201;51.148;13.738;2022-10-18T00:33:58;15.70;99.90
25250;DHT22;13201;51.148;13.738;2022-10-18T00:36:26;15.70;99.90
25250;DHT22;13201;51.148;13.738;2022-10-18T00:38:52;15.60;99.90
25250;DHT22;13201;51.148;13.738;2022-10-18T00:41:24;15.60;99.90
25250;DHT22;13201;51.148;13.738;2022-10-18T00:44:01;15.60;99.90
25250;DHT22;13201;51.148;13.738;2022-10-18T00:46:33;15.60;99.90
25250;DHT22;13201;51.148;13.738;2022-10-18T00:49:06;15.50;99.90
25250;DHT22;13201;51.148;13.738;2022-10-18T00:51:56;15.50;99.90
25250;DHT22;13201;51.148;13.738;2022-10-18T00:54:22;15.40;99.90
25250;DHT22;13201;51.148;13.738;2022-10-18T00:56:49;15.30;99.90
25250;DHT22;13201;51.148;13.738;2022-10-18T00:59:16;15.30;99.90
25250;DHT22;13201;51.148;13.738;2022-10-18T01:01:42;15.30;99.90
25250;DHT22;13201;51.148;13.738;2022-10-18T01:04:08;15.20;99.90
25250;DHT22;13201;51.148;13.738;2022-10-18T01:31:46;14.20;99.90
25250;DHT22;13201;51.148;13.738;2022-10-18T01:34:16;14.10;99.90
25250;DHT22;13201;51.148;13.738;2022-10-18T01:36:51;14.30;99.90
25250;DHT22;13201;51.148;13.738;2022-10-18T01:39:25;14.30;99.90
25250;DHT22;13201;51.148;13.738;2022-10-18T01:41:52;14.20;99.90
25250;DHT22;13201;51.148;13.738;2022-10-18T01:44:22;14.40;99.90
25250;DHT22;13201;51.148;13.738;2022-10-18T01:46:49;14.60;99.90
25250;DHT22;13201;51.148;13.738;2022-10-18T01:49:16;14.60;99.90
25250;DHT22;13201;51.148;13.738;2022-10-18T01:51:42;14.70;99.90
25250;DHT22;13201;51.148;13.738;2022-10-18T01:54:08;14.70;99.90
25250;DHT22;13201;51.148;13.738;2022-10-18T01:59:29;14.70;99.90
25250;DHT22;13201;51.148;13.738;2022-10-18T02:07:43;14.70;99.90
25250;DHT22;13201;51.148;13.738;2022-10-18T02:10:57;14.80;99.90
25250;DHT22;13201;51.148;13.738;2022-10-18T02:13:18;14.70;99.90
25250;DHT22;13201;51.148;13.738;2022-10-18T02:15:50;14.50;99.90
25250;DHT22;13201;51.148;13.738;2022-10-18T02:18:24;14.60;99.90
25250;DHT22;13201;51.148;13.738;2022-10-18T02:20:53;14.60;99.90
25250;DHT22;13201;51.148;13.738;2022-10-18T02:23:22;14.80;99.90
25250;DHT22;13201;51.148;13.738;2022-10-18T02:25:49;14.70;99.90
25250;DHT22;13201;51.148;13.738;2022-10-18T02:28:15;14.70;99.90
25250;DHT22;13201;51.148;13.738;2022-10-18T02:36:46;14.80;99.90
25250;DHT22;13201;51.148;13.738;2022-10-18T02:39:15;14.90;99.90
25250;DHT22;13201;51.148;13.738;2022-10-18T02:41:42;14.90;99.90
25250;DHT22;13201;51.148;13.738;2022-10-18T02:44:08;14.80;99.90
25250;DHT22;13201;51.148;13.738;2022-10-18T02:46:34;14.90;99.90
25250;DHT22;13201;51.148;13.738;2022-10-18T02:49:00;15.00;99.90
25250;DHT22;13201;51.148;13.738;2022-10-18T02:51:26;15.00;99.90
25250;DHT22;13201;51.148;13.738;2022-10-18T02:53:51;15.00;99.90
25250;DHT22;13201;51.148;13.738;2022-10-18T02:56:17;15.00;99.90
25250;DHT22;13201;51.148;13.738;2022-10-18T02:58:43;14.70;99.90
25250;DHT22;13201;51.148;13.738;2022-10-18T03:01:08;14.70;99.90
25250;DHT22;13201;51.148;13.738;2022-10-18T03:03:34;14.90;99.90
25250;DHT22;13201;51.148;13.738;2022-10-18T03:06:00;14.80;99.90
25250;DHT22;13201;51.148;13.738;2022-10-18T03:08:26;14.80;99.90
25250;DHT22;13201;51.148;13.738;2022-10-18T03:10:51;14.70;99.90
25250;DHT22;13201;51.148;13.738;2022-10-18T03:13:17;14.80;99.90
25250;DHT22;13201;51.148;13.738;2022-10-18T03:15:43;14.80;99.90
25250;DHT22;13201;51.148;13.738;2022-10-18T03:18:09;14.80;99.90
25250;DHT22;13201;51.148;13.738;2022-10-18T03:20:34;14.90;99.90
25250;DHT22;13201;51.148;13.738;2022-10-18T03:23:00;14.90;99.90
25250;DHT22;13201;51.148;13.738;2022-10-18T03:25:26;14.90;99.90
25250;DHT22;13201;51.148;13.738;2022-10-18T03:27:51;14.80;99.90
25250;DHT22;13201;51.148;13.738;2022-10-18T03:30:17;14.60;99.90
25250;DHT22;13201;51.148;13.738;2022-10-18T03:32:42;14.70;99.90
25250;DHT22;13201;51.148;13.738;2022-10-18T03:35:08;14.80;99.90
25250;DHT22;13201;51.148;13.738;2022-10-18T03:37:35;14.80;99.90
25250;DHT22;13201;51.148;13.738;2022-10-18T03:40:01;14.80;99.90
25250;DHT22;13201;51.148;13.738;2022-10-18T03:42:27;14.70;99.90
25250;DHT22;13201;51.148;13.738;2022-10-18T03:44:53;14.60;99.90
25250;DHT22;13201;51.148;13.738;2022-10-18T03:47:19;14.70;99.90
25250;DHT22;13201;51.148;13.738;2022-10-18T03:49:44;14.70;99.90
25250;DHT22;13201;51.148;13.738;2022-10-18T03:52:10;14.80;99.90
25250;DHT22;13201;51.148;13.738;2022-10-18T03:54:35;14.80;99.90
25250;DHT22;13201;51.148;13.738;2022-10-18T03:57:01;14.90;99.90
25250;DHT22;13201;51.148;13.738;2022-10-18T03:59:27;14.90;99.90
25250;DHT22;13201;51.148;13.738;2022-10-18T04:01:52;14.80;99.90
25250;DHT22;13201;51.148;13.738;2022-10-18T04:04:18;15.00;99.90
25250;DHT22;13201;51.148;13.738;2022-10-18T04:06:43;15.00;99.90
25250;DHT22;13201;51.148;13.738;2022-10-18T04:09:09;15.10;99.90
25250;DHT22;13201;51.148;13.738;2022-10-18T04:11:35;15.00;99.90
25250;DHT22;13201;51.148;13.738;2022-10-18T04:14:01;15.10;99.90
25250;DHT22;13201;51.148;13.738;2022-10-18T04:16:26;15.10;99.90
25250;DHT22;13201;51.148;13.738;2022-10-18T04:18:52;15.20;99.90
25250;DHT22;13201;51.148;13.738;2022-10-18T04:21:18;15.20;99.90
25250;DHT22;13201;51.148;13.738;2022-10-18T04:23:46;15.30;99.90
25250;DHT22;13201;51.148;13.738;2022-10-18T04:26:12;15.30;99.90
25250;DHT22;13201;51.148;13.738;2022-10-18T04:28:37;15.20;99.90
25250;DHT22;13201;51.148;13.738;2022-10-18T04:31:05;15.40;99.90
25250;DHT22;13201;51.148;13.738;2022-10-18T04:33:30;15.30;99.90
25250;DHT22;13201;51.148;13.738;2022-10-18T04:35:56;15.40;99.90
25250;DHT22;13201;51.148;13.738;2022-10-18T04:38:22;15.30;99.90
25250;DHT22;13201;51.148;13.738;2022-10-18T04:40:48;15.40;99.90
25250;DHT22;13201;51.148;13.738;2022-10-18T04:43:13;15.30;99.90
25250;DHT22;13201;51.148;13.738;2022-10-18T04:45:39;15.40;99.90
25250;DHT22;13201;51.148;13.738;2022-10-18T04:48:05;15.50;99.90
25250;DHT22;13201;51.148;13.738;2022-10-18T04:50:31;15.40;99.90
25250;DHT22;13201;51.148;13.738;2022-10-18T04:52:56;15.50;99.90
25250;DHT22;13201;51.148;13.738;2022-10-18T04:55:22;15.50;99.90
25250;DHT22;13201;51.148;13.738;2022-10-18T04:57:48;15.50;99.90
25250;DHT22;13201;51.148;13.738;2022-10-18T05:00:13;15.50;99.90
25250;DHT22;13201;51.148;13.738;2022-10-18T05:02:39;15.40;99.90
25250;DHT22;13201;51.148;13.738;2022-10-18T05:05:05;15.40;99.90
25250;DHT22;13201;51.148;13.738;2022-10-18T05:07:31;15.30;99.90
25250;DHT22;13201;51.148;13.738;2022-10-18T05:09:56;15.20;99.90
25250;DHT22;13201;51.148;13.738;2022-10-18T05:12:22;15.20;99.90
25250;DHT22;13201;51.148;13.738;2022-10-18T05:14:47;15.10;99.90
25250;DHT22;13201;51.148;13.738;2022-10-18T05:17:13;15.20;99.90
25250;DHT22;13201;51.148;13.738;2022-10-18T05:19:39;15.20;99.90
25250;DHT22;13201;51.148;13.738;2022-10-18T05:22:04;15.20;99.90
25250;DHT22;13201;51.148;13.738;2022-10-18T05:24:30;15.40;99.90
25250;DHT22;13201;51.148;13.738;2022-10-18T05:26:56;15.40;99.90
25250;DHT22;13201;51.148;13.738;2022-10-18T05:29:22;15.40;99.90
25250;DHT22;13201;51.148;13.738;2022-10-18T05:31:48;15.50;99.90
25250;DHT22;13201;51.148;13.738;2022-10-18T05:34:14;15.60;99.90
25250;DHT22;13201;51.148;13.738;2022-10-18T05:36:39;15.50;99.90
25250;DHT22;13201;51.148;13.738;2022-10-18T05:39:05;15.50;99.90
25250;DHT22;13201;51.148;13.738;2022-10-18T05:41:31;15.50;99.90
25250;DHT22;13201;51.148;13.738;2022-10-18T05:43:56;15.50;99.90
25250;DHT22;13201;51.148;13.738;2022-10-18T05:46:22;15.40;99.90
25250;DHT22;13201;51.148;13.738;2022-10-18T05:48:51;15.50;99.90
25250;DHT22;13201;51.148;13.738;2022-10-18T05:51:19;15.50;99.90
25250;DHT22;13201;51.148;13.738;2022-10-18T05:53:45;15.50;99.90
25250;DHT22;13201;51.148;13.738;2022-10-18T05:56:10;15.30;99.90
25250;DHT22;13201;51.148;13.738;2022-10-18T05:58:37;15.30;99.90
25250;DHT22;13201;51.148;13.738;2022-10-18T06:01:04;15.40;99.90
25250;DHT22;13201;51.148;13.738;2022-10-18T06:03:30;15.30;99.90
25250;DHT22;13201;51.148;13.738;2022-10-18T06:06:22;15.30;99.90
25250;DHT22;13201;51.148;13.738;2022-10-18T06:08:48;15.50;99.90
25250;DHT22;13201;51.148;13.738;2022-10-18T06:11:15;15.40;99.90
25250;DHT22;13201;51.148;13.738;2022-10-18T06:13:45;15.50;99.90
25250;DHT22;13201;51.148;13.738;2022-10-18T06:16:12;15.60;99.90
25250;DHT22;13201;51.148;13.738;2022-10-18T06:18:39;15.50;99.90
25250;DHT22;13201;51.148;13.738;2022-10-18T06:21:05;15.60;99.90
25250;DHT22;13201;51.148;13.738;2022-10-18T06:23:30;15.60;99.90
25250;DHT22;13201;51.148;13.738;2022-10-18T06:26:04;15.70;99.90
25250;DHT22;13201;51.148;13.738;2022-10-18T06:28:30;15.80;99.90
25250;DHT22;13201;51.148;13.738;2022-10-18T06:30:57;15.80;99.90
25250;DHT22;13201;51.148;13.738;2022-10-18T06:33:23;15.90;99.90
25250;DHT22;13201;51.148;13.738;2022-10-18T06:36:25;16.00;99.90
25250;DHT22;13201;51.148;13.738;2022-10-18T06:38:51;16.00;99.90
25250;DHT22;13201;51.148;13.738;2022-10-18T06:41:17;16.00;99.90
25250;DHT22;13201;51.148;13.738;2022-10-18T06:43:50;15.80;99.90
25250;DHT22;13201;51.148;13.738;2022-10-18T06:46:18;15.90;99.90
25250;DHT22;13201;51.148;13.738;2022-10-18T06:48:44;16.00;99.90
25250;DHT22;13201;51.148;13.738;2022-10-18T06:51:09;16.10;99.90
25250;DHT22;13201;51.148;13.738;2022-10-18T06:53:37;15.90;99.90
25250;DHT22;13201;51.148;13.738;2022-10-18T06:56:09;16.00;99.90
25250;DHT22;13201;51.148;13.738;2022-10-18T06:58:35;16.00;99.90
25250;DHT22;13201;51.148;13.738;2022-10-18T07:01:12;15.90;99.90
25250;DHT22;13201;51.148;13.738;2022-10-18T07:03:38;15.90;99.90
25250;DHT22;13201;51.148;13.738;2022-10-18T07:06:05;15.90;99.90
25250;DHT22;13201;51.148;13.738;2022-10-18T07:08:31;15.70;99.90
25250;DHT22;13201;51.148;13.738;2022-10-18T07:10:57;15.70;99.90
25250;DHT22;13201;51.148;13.738;2022-10-18T07:13:23;15.60;99.90
25250;DHT22;13201;51.148;13.738;2022-10-18T07:16:05;15.70;99.90
25250;DHT22;13201;51.148;13.738;2022-10-18T07:18:33;15.90;99.90
25250;DHT22;13201;51.148;13.738;2022-10-18T07:21:01;16.10;99.90
25250;DHT22;13201;51.148;13.738;2022-10-18T07:23:27;16.10;99.90
25250;DHT22;13201;51.148;13.738;2022-10-18T07:25:52;16.20;99.90
25250;DHT22;13201;51.148;13.738;2022-10-18T07:28:18;16.00;99.90
25250;DHT22;13201;51.148;13.738;2022-10-18T07:30:44;16.00;99.90
25250;DHT22;13201;51.148;13.738;2022-10-18T07:33:09;16.00;99.90
25250;DHT22;13201;51.148;13.738;2022-10-18T07:35:35;16.00;99.90
25250;DHT22;13201;51.148;13.738;2022-10-18T07:38:00;16.20;99.90
25250;DHT22;13201;51.148;13.738;2022-10-18T07:40:26;16.20;99.90
25250;DHT22;13201;51.148;13.738;2022-10-18T07:42:52;16.40;99.90
25250;DHT22;13201;51.148;13.738;2022-10-18T07:45:17;16.40;99.90
25250;DHT22;13201;51.148;13.738;2022-10-18T07:47:43;16.50;99.90
25250;DHT22;13201;51.148;13.738;2022-10-18T07:50:08;16.50;99.90
25250;DHT22;13201;51.148;13.738;2022-10-18T07:52:34;16.50;99.90
25250;DHT22;13201;51.148;13.738;2022-10-18T07:55:00;16.50;99.90
25250;DHT22;13201;51.148;13.738;2022-10-18T07:57:25;16.50;99.90
25250;DHT22;13201;51.148;13.738;2022-10-18T07:59:51;16.60;99.90
25250;DHT22;13201;51.148;13.738;2022-10-18T08:02:22;16.40;99.90
25250;DHT22;13201;51.148;13.738;2022-10-18T08:04:47;16.50;99.90
25250;DHT22;13201;51.148;13.738;2022-10-18T08:07:13;16.60;99.90
25250;DHT22;13201;51.148;13.738;2022-10-18T08:09:38;16.70;99.90
25250;DHT22;13201;51.148;13.738;2022-10-18T08:12:04;16.60;99.90
25250;DHT22;13201;51.148;13.738;2022-10-18T08:14:30;16.60;99.90
25250;DHT22;13201;51.148;13.738;2022-10-18T08:16:55;16.70;99.90
25250;DHT22;13201;51.148;13.738;2022-10-18T08:19:21;16.70;99.90
25250;DHT22;13201;51.148;13.738;2022-10-18T08:21:47;16.70;99.90
25250;DHT22;13201;51.148;13.738;2022-10-18T08:24:12;16.80;99.90
25250;DHT22;13201;51.148;13.738;2022-10-18T08:26:38;17.00;99.90
25250;DHT22;13201;51.148;13.738;2022-10-18T08:29:03;16.90;99.90
25250;DHT22;13201;51.148;13.738;2022-10-18T08:31:29;16.80;99.90
25250;DHT22;13201;51.148;13.738;2022-10-18T08:33:55;16.70;99.90
25250;DHT22;13201;51.148;13.738;2022-10-18T08:36:21;16.80;99.90
25250;DHT22;13201;51.148;13.738;2022-10-18T08:38:47;16.80;99.90
25250;DHT22;13201;51.148;13.738;2022-10-18T08:41:31;16.80;99.90
25250;DHT22;13201;51.148;13.738;2022-10-18T08:46:40;16.70;99.90
25250;DHT22;13201;51.148;13.738;2022-10-18T08:49:15;16.70;99.90
25250;DHT22;13201;51.148;13.738;2022-10-18T08:51:46;16.70;99.90
25250;DHT22;13201;51.148;13.738;2022-10-18T08:57:01;16.90;99.90
25250;DHT22;13201;51.148;13.738;2022-10-18T08:59:33;16.80;99.90
25250;DHT22;13201;51.148;13.738;2022-10-18T09:10:35;17.10;99.90
25250;DHT22;13201;51.148;13.738;2022-10-18T09:15:54;17.30;99.90
25250;DHT22;13201;51.148;13.738;2022-10-18T09:20:57;17.60;99.90
25250;DHT22;13201;51.148;13.738;2022-10-18T09:23:45;17.70;99.90
25250;DHT22;13201;51.148;13.738;2022-10-18T09:33:58;17.60;99.90
25250;DHT22;13201;51.148;13.738;2022-10-18T09:36:30;17.60;99.90
25250;DHT22;13201;51.148;13.738;2022-10-18T09:39:12;17.80;99.90
25250;DHT22;13201;51.148;13.738;2022-10-18T09:44:27;17.80;99.90
25250;DHT22;13201;51.148;13.738;2022-10-18T09:47:00;17.90;99.90
25250;DHT22;13201;51.148;13.738;2022-10-18T09:50:20;17.90;99.90
25250;DHT22;13201;51.148;13.738;2022-10-18T09:52:30;18.00;99.90
25250;DHT22;13201;51.148;13.738;2022-10-18T09:54:59;18.00;99.90
25250;DHT22;13201;51.148;13.738;2022-10-18T09:57:47;18.00;99.90
25250;DHT22;13201;51.148;13.738;2022-10-18T10:00:20;17.90;99.90
25250;DHT22;13201;51.148;13.738;2022-10-18T10:02:47;18.00;99.90
25250;DHT22;13201;51.148;13.738;2022-10-18T10:05:13;18.00;99.90
25250;DHT22;13201;51.148;13.738;2022-10-18T10:07:41;18.10;99.90
25250;DHT22;13201;51.148;13.738;2022-10-18T10:10:15;18.10;99.90
25250;DHT22;13201;51.148;13.738;2022-10-18T10:12:41;18.30;99.90
25250;DHT22;13201;51.148;13.738;2022-10-18T10:15:24;18.60;99.90
25250;DHT22;13201;51.148;13.738;2022-10-18T10:20:34;18.60;99.90
25250;DHT22;13201;51.148;13.738;2022-10-18T10:23:06;18.30;99.90
25250;DHT22;13201;51.148;13.738;2022-10-18T10:25:36;17.90;99.90
25250;DHT22;13201;51.148;13.738;2022-10-18T10:28:14;17.50;99.90
25250;DHT22;13201;51.148;13.738;2022-10-18T10:30:41;17.40;99.90
25250;DHT22;13201;51.148;13.738;2022-10-18T10:33:33;17.40;99.90
25250;DHT22;13201;51.148;13.738;2022-10-18T10:36:01;17.40;99.90
25250;DHT22;13201;51.148;13.738;2022-10-18T10:38:29;17.30;99.90
25250;DHT22;13201;51.148;13.738;2022-10-18T10:40:55;17.10;99.90
25250;DHT22;13201;51.148;13.738;2022-10-18T10:43:22;17.00;99.90
25250;DHT22;13201;51.148;13.738;2022-10-18T10:46:08;16.80;99.90
25250;DHT22;13201;51.148;13.738;2022-10-18T10:48:47;16.70;99.90
25250;DHT22;13201;51.148;13.738;2022-10-18T10:51:16;16.80;99.90
25250;DHT22;13201;51.148;13.738;2022-10-18T10:53:45;16.70;99.90
25250;DHT22;13201;51.148;13.738;2022-10-18T10:56:22;16.60;99.90
25250;DHT22;13201;51.148;13.738;2022-10-18T10:58:48;16.60;99.90
25250;DHT22;13201;51.148;13.738;2022-10-18T11:01:16;16.40;99.90
25250;DHT22;13201;51.148;13.738;2022-10-18T11:03:50;16.40;99.90
25250;DHT22;13201;51.148;13.738;2022-10-18T11:06:56;16.40;99.90
25250;DHT22;13201;51.148;13.738;2022-10-18T11:14:54;16.70;99.90
25250;DHT22;13201;51.148;13.738;2022-10-18T11:17:31;16.70;99.90
25250;DHT22;13201;51.148;13.738;2022-10-18T11:22:31;16.80;99.90
25250;DHT22;13201;51.148;13.738;2022-10-18T11:24:58;16.70;99.90
25250;DHT22;13201;51.148;13.738;2022-10-18T11:27:27;16.70;99.90
25250;DHT22;13201;51.148;13.738;2022-10-18T11:40:51;16.80;99.90
25250;DHT22;13201;51.148;13.738;2022-10-18T11:43:39;16.90;99.90
25250;DHT22;13201;51.148;13.738;2022-10-18T11:46:13;16.90;99.90
25250;DHT22;13201;51.148;13.738;2022-10-18T12:02:47;16.80;99.90
25250;DHT22;13201;51.148;13.738;2022-10-18T12:05:05;16.90;99.90
25250;DHT22;13201;51.148;13.738;2022-10-18T12:07:39;16.70;99.90
25250;DHT22;13201;51.148;13.738;2022-10-18T12:10:08;16.80;99.90
25250;DHT22;13201;51.148;13.738;2022-10-18T12:13:00;16.80;99.90
25250;DHT22;13201;51.148;13.738;2022-10-18T12:15:28;16.90;99.90
25250;DHT22;13201;51.148;13.738;2022-10-18T12:18:04;16.90;99.90
25250;DHT22;13201;51.148;13.738;2022-10-18T12:21:03;16.80;99.90
25250;DHT22;13201;51.148;13.738;2022-10-18T12:24:19;16.80;99.90
25250;DHT22;13201;51.148;13.738;2022-10-18T12:26:19;16.80;99.90
25250;DHT22;13201;51.148;13.738;2022-10-18T12:31:41;16.70;99.90
25250;DHT22;13201;51.148;13.738;2022-10-18T12:39:43;16.80;99.90
25250;DHT22;13201;51.148;13.738;2022-10-18T12:42:19;16.90;99.90
25250;DHT22;13201;51.148;13.738;2022-10-18T12:44:46;16.80;99.90
25250;DHT22;13201;51.148;13.738;2022-10-18T12:47:23;16.80;99.90
25250;DHT22;13201;51.148;13.738;2022-10-18T12:50:00;16.80;99.90
25250;DHT22;13201;51.148;13.738;2022-10-18T12:52:28;16.90;99.90
25250;DHT22;13201;51.148;13.738;2022-10-18T12:55:30;16.90;99.90
25250;DHT22;13201;51.148;13.738;2022-10-18T13:06:01;17.00;99.90
25250;DHT22;13201;51.148;13.738;2022-10-18T13:19:07;16.80;99.90
25250;DHT22;13201;51.148;13.738;2022-10-18T13:31:48;17.10;99.90
25250;DHT22;13201;51.148;13.738;2022-10-18T13:34:27;17.00;99.90
25250;DHT22;13201;51.148;13.738;2022-10-18T13:37:04;17.10;99.90
25250;DHT22;13201;51.148;13.738;2022-10-18T13:39:31;17.10;99.90
25250;DHT22;13201;51.148;13.738;2022-10-18T13:44:35;17.20;99.90
25250;DHT22;13201;51.148;13.738;2022-10-18T13:49:47;17.20;99.90
25250;DHT22;13201;51.148;13.738;2022-10-18T14:01:14;17.40;99.90
25250;DHT22;13201;51.148;13.738;2022-10-18T14:04:11;17.40;99.90
25250;DHT22;13201;51.148;13.738;2022-10-18T14:06:43;17.50;99.90
25250;DHT22;13201;51.148;13.738;2022-10-18T14:09:22;17.50;99.90
25250;DHT22;13201;51.148;13.738;2022-10-18T14:11:51;17.60;99.90
25250;DHT22;13201;51.148;13.738;2022-10-18T14:14:29;17.40;99.90
25250;DHT22;13201;51.148;13.738;2022-10-18T14:17:22;17.60;99.90
25250;DHT22;13201;51.148;13.738;2022-10-18T14:19:55;17.60;99.90
25250;DHT22;13201;51.148;13.738;2022-10-18T14:22:41;17.50;99.90
25250;DHT22;13201;51.148;13.738;2022-10-18T14:25:30;17.40;99.90
25250;DHT22;13201;51.148;13.738;2022-10-18T14:28:08;17.30;99.90
25250;DHT22;13201;51.148;13.738;2022-10-18T14:30:35;17.10;99.90
25250;DHT22;13201;51.148;13.738;2022-10-18T14:33:01;17.10;99.90
25250;DHT22;13201;51.148;13.738;2022-10-18T14:35:30;16.90;99.90
25250;DHT22;13201;51.148;13.738;2022-10-18T14:37:56;16.80;99.90
25250;DHT22;13201;51.148;13.738;2022-10-18T14:40:35;17.00;99.90
25250;DHT22;13201;51.148;13.738;2022-10-18T14:43:17;17.00;99.90
25250;DHT22;13201;51.148;13.738;2022-10-18T14:45:43;17.00;99.90
25250;DHT22;13201;51.148;13.738;2022-10-18T14:48:14;17.10;99.90
25250;DHT22;13201;51.148;13.738;2022-10-18T14:50:42;17.20;99.90
25250;DHT22;13201;51.148;13.738;2022-10-18T14:53:14;17.00;99.90
25250;DHT22;13201;51.148;13.738;2022-10-18T14:55:41;16.90;99.90
25250;DHT22;13201;51.148;13.738;2022-10-18T14:58:14;17.00;99.90
25250;DHT22;13201;51.148;13.738;2022-10-18T15:00:40;17.10;99.90
25250;DHT22;13201;51.148;13.738;2022-10-18T15:03:11;17.30;99.90
25250;DHT22;13201;51.148;13.738;2022-10-18T15:05:54;17.20;99.90
25250;DHT22;13201;51.148;13.738;2022-10-18T15:08:20;17.10;99.90
25250;DHT22;13201;51.148;13.738;2022-10-18T15:10:47;17.00;99.90
25250;DHT22;13201;51.148;13.738;2022-10-18T15:13:13;17.20;99.90
25250;DHT22;13201;51.148;13.738;2022-10-18T15:15:39;17.10;99.90
25250;DHT22;13201;51.148;13.738;2022-10-18T15:18:06;17.30;99.90
25250;DHT22;13201;51.148;13.738;2022-10-18T15:20:36;17.30;99.90
25250;DHT22;13201;51.148;13.738;2022-10-18T15:23:27;17.40;99.90
25250;DHT22;13201;51.148;13.738;2022-10-18T15:26:08;17.20;99.90
25250;DHT22;13201;51.148;13.738;2022-10-18T15:28:46;17.20;99.90
25250;DHT22;13201;51.148;13.738;2022-10-18T15:31:29;17.30;99.90
25250;DHT22;13201;51.148;13.738;2022-10-18T15:34:15;17.40;99.90
25250;DHT22;13201;51.148;13.738;2022-10-18T15:36:42;17.60;99.90
25250;DHT22;13201;51.148;13.738;2022-10-18T15:39:34;17.50;99.90
25250;DHT22;13201;51.148;13.738;2022-10-18T15:42:01;17.40;99.90
25250;DHT22;13201;51.148;13.738;2022-10-18T15:44:48;17.30;99.90
25250;DHT22;13201;51.148;13.738;2022-10-18T15:47:17;17.30;99.90
25250;DHT22;13201;51.148;13.738;2022-10-18T15:49:53;17.30;99.90
25250;DHT22;13201;51.148;13.738;2022-10-18T15:54:46;17.20;99.90
25250;DHT22;13201;51.148;13.738;2022-10-18T15:57:12;17.10;99.90
25250;DHT22;13201;51.148;13.738;2022-10-18T15:59:55;17.20;99.90
25250;DHT22;13201;51.148;13.738;2022-10-18T16:02:22;17.20;99.90
25250;DHT22;13201;51.148;13.738;2022-10-18T16:04:48;17.20;99.90
25250;DHT22;13201;51.148;13.738;2022-10-18T16:07:14;17.30;99.90
25250;DHT22;13201;51.148;13.738;2022-10-18T16:09:39;17.10;99.90
25250;DHT22;13201;51.148;13.738;2022-10-18T16:12:05;17.10;99.90
25250;DHT22;13201;51.148;13.738;2022-10-18T16:14:31;17.00;99.90
25250;DHT22;13201;51.148;13.738;2022-10-18T16:17:02;16.70;99.90
25250;DHT22;13201;51.148;13.738;2022-10-18T16:19:29;16.80;99.90
25250;DHT22;13201;51.148;13.738;2022-10-18T16:21:55;16.70;99.90
25250;DHT22;13201;51.148;13.738;2022-10-18T16:24:21;16.70;99.90
25250;DHT22;13201;51.148;13.738;2022-10-18T16:26:47;16.70;99.90
25250;DHT22;13201;51.148;13.738;2022-10-18T16:29:19;16.70;99.90
25250;DHT22;13201;51.148;13.738;2022-10-18T16:31:49;16.60;99.90
25250;DHT22;13201;51.148;13.738;2022-10-18T16:34:16;16.80;99.90
25250;DHT22;13201;51.148;13.738;2022-10-18T16:36:42;16.80;99.90
25250;DHT22;13201;51.148;13.738;2022-10-18T16:39:17;16.80;99.90
25250;DHT22;13201;51.148;13.738;2022-10-18T16:41:44;16.90;99.90
25250;DHT22;13201;51.148;13.738;2022-10-18T16:44:09;16.80;99.90
25250;DHT22;13201;51.148;13.738;2022-10-18T16:46:35;16.40;99.90
25250;DHT22;13201;51.148;13.738;2022-10-18T16:49:01;16.60;99.90
25250;DHT22;13201;51.148;13.738;2022-10-18T16:51:27;16.60;99.90
25250;DHT22;13201;51.148;13.738;2022-10-18T16:53:53;16.50;99.90
25250;DHT22;13201;51.148;13.738;2022-10-18T16:56:24;16.60;99.90
25250;DHT22;13201;51.148;13.738;2022-10-18T16:58:50;16.50;99.90
25250;DHT22;13201;51.148;13.738;2022-10-18T17:01:19;16.40;99.90
25250;DHT22;13201;51.148;13.738;2022-10-18T17:03:45;16.40;99.90
25250;DHT22;13201;51.148;13.738;2022-10-18T17:06:17;16.40;99.90
25250;DHT22;13201;51.148;13.738;2022-10-18T17:08:43;16.40;99.90
25250;DHT22;13201;51.148;13.738;2022-10-18T17:11:09;16.50;99.90
25250;DHT22;13201;51.148;13.738;2022-10-18T17:13:35;16.60;99.90
25250;DHT22;13201;51.148;13.738;2022-10-18T17:16:01;16.50;99.90
25250;DHT22;13201;51.148;13.738;2022-10-18T17:18:28;16.50;99.90
25250;DHT22;13201;51.148;13.738;2022-10-18T17:20:55;16.30;99.90
25250;DHT22;13201;51.148;13.738;2022-10-18T17:23:23;16.30;99.90
25250;DHT22;13201;51.148;13.738;2022-10-18T17:25:49;16.10;99.90
25250;DHT22;13201;51.148;13.738;2022-10-18T17:28:16;16.20;99.90
25250;DHT22;13201;51.148;13.738;2022-10-18T17:30:43;16.20;99.90
25250;DHT22;13201;51.148;13.738;2022-10-18T17:33:09;16.20;99.90
25250;DHT22;13201;51.148;13.738;2022-10-18T17:35:35;16.20;99.90
25250;DHT22;13201;51.148;13.738;2022-10-18T17:38:01;16.20;99.90
25250;DHT22;13201;51.148;13.738;2022-10-18T17:40:28;16.30;99.90
25250;DHT22;13201;51.148;13.738;2022-10-18T17:42:54;15.90;99.90
25250;DHT22;13201;51.148;13.738;2022-10-18T17:45:20;15.60;99.90
25250;DHT22;13201;51.148;13.738;2022-10-18T17:47:46;15.50;99.90
25250;DHT22;13201;51.148;13.738;2022-10-18T17:50:13;15.70;99.90
25250;DHT22;13201;51.148;13.738;2022-10-18T17:52:45;15.90;99.90
25250;DHT22;13201;51.148;13.738;2022-10-18T17:55:12;15.80;99.90
25250;DHT22;13201;51.148;13.738;2022-10-18T17:57:39;15.70;99.90
25250;DHT22;13201;51.148;13.738;2022-10-18T18:00:06;15.70;99.90
25250;DHT22;13201;51.148;13.738;2022-10-18T18:02:33;15.80;99.90
25250;DHT22;13201;51.148;13.738;2022-10-18T18:04:59;15.90;99.90
25250;DHT22;13201;51.148;13.738;2022-10-18T18:07:24;15.90;99.90
25250;DHT22;13201;51.148;13.738;2022-10-18T18:09:50;15.90;99.90